createdAt,value
2019-03-06T00:00:04.845Z,13
2019-03-06T00:05:27.660Z,9.8
2019-03-06T00:10:50.452Z,10.3
2019-03-06T00:16:13.359Z,9.6
2019-03-06T00:21:36.714Z,10.8
2019-03-06T00:26:59.437Z,12.7
2019-03-06T00:32:22.282Z,12.2
2019-03-06T00:37:45.024Z,9.3
2019-03-06T00:43:07.788Z,14.2
2019-03-06T00:48:30.563Z,11.8
2019-03-06T00:53:53.317Z,11
2019-03-06T00:59:16.100Z,9.2
2019-03-06T01:04:39.285Z,9.8
2019-03-06T01:10:02.105Z,10.6
2019-03-06T01:15:24.931Z,7.2
2019-03-06T01:20:47.853Z,11.4
2019-03-06T01:26:10.832Z,10.7
2019-03-06T01:31:34.136Z,9.2
2019-03-06T01:36:56.981Z,9.5
2019-03-06T01:42:19.783Z,7.8
2019-03-06T01:47:42.569Z,9.2
2019-03-06T01:53:05.314Z,9.1
2019-03-06T01:58:28.067Z,6.4
2019-03-06T02:03:50.853Z,6.7
2019-03-06T02:09:13.526Z,9
2019-03-06T02:14:36.166Z,9.3
2019-03-06T02:19:58.837Z,7.4
2019-03-06T02:25:21.522Z,6.5
2019-03-06T02:30:45.061Z,8.8
2019-03-06T02:36:08.550Z,7.7
2019-03-06T02:41:31.318Z,8.2
2019-03-06T02:46:53.966Z,6.6
2019-03-06T02:52:16.638Z,8.1
2019-03-06T02:57:39.363Z,7.6
2019-03-06T03:03:02.065Z,6.6
2019-03-06T03:08:24.786Z,9.2
2019-03-06T03:13:47.468Z,8.3
2019-03-06T03:19:10.124Z,9.8
2019-03-06T03:24:32.933Z,9
2019-03-06T03:29:55.699Z,11.5
2019-03-06T03:35:18.462Z,8
2019-03-06T03:40:41.316Z,11.4
2019-03-06T03:46:04.022Z,10.9
2019-03-06T03:51:26.853Z,14.4
2019-03-06T03:56:49.596Z,14.1
2019-03-06T04:02:12.297Z,13.8
2019-03-06T04:07:35.165Z,15.9
2019-03-06T04:12:58.797Z,14.5
2019-03-06T04:18:21.542Z,16.5
2019-03-06T04:23:44.287Z,17.1
2019-03-06T04:29:07.016Z,17.6
2019-03-06T04:34:30.639Z,18.700001
2019-03-06T04:39:53.426Z,16.299999
2019-03-06T04:45:16.167Z,19.299999
2019-03-06T04:50:38.942Z,17.700001
2019-03-06T04:56:01.785Z,19.6
2019-03-06T05:01:24.506Z,19.299999
2019-03-06T05:06:47.257Z,20.6
2019-03-06T05:12:10.056Z,19.1
2019-03-06T05:17:32.942Z,21.799999
2019-03-06T05:22:55.759Z,21.700001
2019-03-06T05:28:18.572Z,22.5
2019-03-06T05:33:41.337Z,21.799999
2019-03-06T05:39:04.275Z,19.200001
2019-03-06T05:44:26.963Z,21.6
2019-03-06T05:49:49.673Z,25.299999
2019-03-06T05:55:12.323Z,21.4
2019-03-06T06:00:34.981Z,23.200001
2019-03-06T06:05:57.663Z,24.1
2019-03-06T06:11:20.307Z,19.5
2019-03-06T06:16:43.013Z,20.799999
2019-03-06T06:22:05.837Z,20.700001
2019-03-06T06:27:28.498Z,22.299999
2019-03-06T06:32:51.212Z,23.6
2019-03-06T06:38:13.915Z,19
2019-03-06T06:43:36.590Z,17.5
2019-03-06T06:48:59.319Z,18.9
2019-03-06T06:54:22.217Z,16.799999
2019-03-06T06:59:44.980Z,17.200001
2019-03-06T07:05:07.818Z,15.2
2019-03-06T07:10:31.522Z,19.1
2019-03-06T07:15:54.426Z,14.2
2019-03-06T07:21:17.135Z,14.4
2019-03-06T07:26:39.868Z,13.3
2019-03-06T07:32:02.575Z,13.5
2019-03-06T07:37:28.509Z,15.4
2019-03-06T07:42:48.856Z,16.9
2019-03-06T07:48:12.438Z,13.2
2019-03-06T07:53:35.275Z,12.7
2019-03-06T07:58:58.884Z,13.8
2019-03-06T08:04:21.802Z,16.299999
2019-03-06T08:09:44.592Z,16.200001
2019-03-06T08:15:07.367Z,14.2
2019-03-06T08:20:30.341Z,16.299999
2019-03-06T08:25:53.800Z,15.8
2019-03-06T08:31:16.575Z,13.5
2019-03-06T08:36:39.334Z,14
2019-03-06T08:42:02.244Z,13.9
2019-03-06T08:47:25.039Z,12.6
2019-03-06T08:52:47.642Z,13.3
2019-03-06T08:58:10.390Z,14.2
2019-03-06T09:03:33.310Z,10.2
2019-03-06T09:08:56.078Z,13.4
2019-03-06T09:14:19.690Z,9.4
2019-03-06T09:19:42.444Z,9.3
2019-03-06T09:25:05.319Z,10.5
2019-03-06T09:30:27.911Z,9.8
2019-03-06T09:35:50.670Z,12
2019-03-06T09:41:13.517Z,11
2019-03-06T09:46:36.224Z,10.4
2019-03-06T09:51:59.932Z,9.3
2019-03-06T09:57:22.616Z,11.2
2019-03-06T10:02:46.420Z,7.8
2019-03-06T10:08:09.111Z,10
2019-03-06T10:13:32.764Z,9.8
2019-03-06T10:18:56.698Z,10.2
2019-03-06T10:24:19.491Z,8
2019-03-06T10:29:42.336Z,9.9
2019-03-06T10:35:05.082Z,10.2
2019-03-06T10:40:27.978Z,8.5
2019-03-06T10:45:50.693Z,6.4
2019-03-06T10:51:13.383Z,10.3
2019-03-06T10:56:36.095Z,7.2
2019-03-06T11:01:58.745Z,6
2019-03-06T11:07:21.435Z,5.4
2019-03-06T11:12:44.149Z,4.8
2019-03-06T11:18:07.045Z,5.9
2019-03-06T11:23:29.991Z,5.9
2019-03-06T11:28:52.783Z,4.6
2019-03-06T11:34:16.301Z,6.9
2019-03-06T11:39:39.757Z,4.9
2019-03-06T11:45:02.457Z,6.2
2019-03-06T11:50:25.250Z,6.3
2019-03-06T11:55:49.076Z,5.8
2019-03-06T12:01:12.878Z,3.8
2019-03-06T12:06:35.673Z,5.3
2019-03-06T12:11:58.389Z,5.2
2019-03-06T12:17:21.112Z,5.1
2019-03-06T12:22:43.824Z,3.5
2019-03-06T12:28:06.586Z,8.6
2019-03-06T12:33:29.348Z,3.9
2019-03-06T12:38:52.022Z,4.4
2019-03-06T12:44:14.841Z,3.7
2019-03-06T12:49:37.505Z,5.8
2019-03-06T12:55:00.289Z,5.6
2019-03-06T13:00:22.874Z,5.1
2019-03-06T13:05:45.676Z,5.4
2019-03-06T13:11:08.384Z,4.4
2019-03-06T13:16:31.137Z,4.4
2019-03-06T13:21:53.784Z,4
2019-03-06T13:27:16.508Z,7.9
2019-03-06T13:32:39.455Z,5.2
2019-03-06T13:38:02.358Z,3.7
2019-03-06T13:43:25.072Z,5.4
2019-03-06T13:48:47.871Z,4.8
2019-03-06T13:54:10.666Z,3.8
2019-03-06T13:59:34.521Z,4.3
2019-03-06T14:04:57.432Z,4.6
2019-03-06T14:10:21.036Z,7.1
2019-03-06T14:15:53.378Z,3.5
2019-03-06T14:21:07.918Z,4
2019-03-06T14:26:30.618Z,5
2019-03-06T14:31:53.374Z,3.6
2019-03-06T14:37:16.059Z,4
2019-03-06T14:42:38.712Z,3.9
2019-03-06T14:48:01.593Z,12.7
2019-03-06T14:53:24.247Z,9.7
2019-03-06T14:58:46.947Z,3.8
2019-03-06T15:04:09.595Z,4
2019-03-06T15:09:33.268Z,4
2019-03-06T15:14:56.561Z,5.1
2019-03-06T15:20:19.419Z,3.2
2019-03-06T15:25:42.048Z,4.4
2019-03-06T15:31:04.801Z,3.4
2019-03-06T15:36:27.662Z,4.6
2019-03-06T15:41:59.895Z,3.1
2019-03-06T15:47:14.351Z,4.1
2019-03-06T15:52:37.049Z,3.2
2019-03-06T15:57:59.751Z,3.7
2019-03-06T16:03:22.579Z,3.9
2019-03-06T16:08:45.448Z,2.8
2019-03-06T16:14:09.035Z,3.3
2019-03-06T16:19:30.896Z,4
2019-03-06T16:24:53.553Z,3.6
2019-03-06T16:30:16.231Z,3.7
2019-03-06T16:35:38.917Z,7.3
2019-03-06T16:41:01.552Z,3.3
2019-03-06T16:46:24.307Z,4
2019-03-06T16:51:48.432Z,3.8
2019-03-06T16:57:14.084Z,4
2019-03-06T17:02:36.892Z,3.7
2019-03-06T17:08:00.379Z,2.9
2019-03-06T17:13:23.405Z,4.2
2019-03-06T17:18:46.299Z,5.1
2019-03-06T17:24:09.156Z,3.9
2019-03-06T17:29:31.824Z,3
2019-03-06T17:34:54.614Z,4.6
2019-03-06T17:40:17.288Z,4.4
2019-03-06T17:45:39.990Z,4.3
2019-03-06T17:51:02.689Z,5
2019-03-06T17:56:25.491Z,4.5
2019-03-06T18:01:49.368Z,5.7
2019-03-06T18:07:13.014Z,5.4
2019-03-06T18:12:35.815Z,3.1
2019-03-06T18:17:58.708Z,3.1
2019-03-06T18:23:22.440Z,4.5
2019-03-06T18:28:48.019Z,4.2
2019-03-06T18:34:11.391Z,4.6
2019-03-06T18:39:34.068Z,3.5
2019-03-06T18:44:56.854Z,4.8
2019-03-06T18:50:20.535Z,4.6
2019-03-06T18:55:43.285Z,4.4
2019-03-06T19:01:06.245Z,5.7
2019-03-06T19:06:29.004Z,4
2019-03-06T19:11:51.907Z,4
2019-03-06T19:17:15.852Z,4.2
2019-03-06T19:22:40.144Z,4.8
2019-03-06T19:28:03.836Z,6.5
2019-03-06T19:33:27.493Z,4.3
2019-03-06T19:38:50.306Z,4.5
2019-03-06T19:44:13.088Z,6.1
2019-03-06T19:49:35.753Z,5.1
2019-03-06T19:54:58.529Z,4.8
2019-03-06T20:00:21.235Z,6.4
2019-03-06T20:05:44.168Z,5.7
2019-03-06T20:11:06.817Z,4.6
2019-03-06T20:16:29.546Z,5.4
2019-03-06T20:21:52.316Z,4.3
2019-03-06T20:27:15.127Z,4.1
2019-03-06T20:32:37.890Z,3.7
2019-03-06T20:38:01.045Z,6.4
2019-03-06T20:43:24.811Z,4.5
2019-03-06T20:48:47.525Z,5.9
2019-03-06T20:54:10.159Z,4.7
2019-03-06T20:59:32.896Z,4.9
2019-03-06T21:04:55.567Z,4.2
2019-03-06T21:10:18.197Z,8.6
2019-03-06T21:15:40.991Z,5.8
2019-03-06T21:21:03.627Z,4.6
2019-03-06T21:26:26.282Z,3.8
2019-03-06T21:31:48.943Z,6.3
2019-03-06T21:37:11.758Z,6.2
2019-03-06T21:42:34.473Z,6.2
2019-03-06T21:47:57.716Z,5.9
2019-03-06T21:53:19.837Z,6.7
2019-03-06T21:58:42.482Z,5.2
2019-03-06T22:04:05.247Z,5.7
2019-03-06T22:09:27.956Z,6.8
2019-03-06T22:14:50.676Z,4.9
2019-03-06T22:20:13.526Z,6.7
2019-03-06T22:25:36.872Z,8.3
2019-03-06T22:30:59.548Z,6.8
2019-03-06T22:36:22.252Z,5.6
2019-03-06T22:41:45.330Z,5.8
2019-03-06T22:47:08.510Z,5.8
2019-03-06T22:52:31.178Z,6.2
2019-03-06T22:57:53.840Z,6.4
2019-03-06T23:03:16.507Z,6.8
2019-03-06T23:08:39.278Z,9.4
2019-03-06T23:14:02.785Z,7.4
2019-03-06T23:19:26.393Z,7
2019-03-06T23:24:49.332Z,7
2019-03-06T23:30:12.087Z,5.1
2019-03-06T23:35:34.970Z,6.3
2019-03-06T23:40:58.342Z,7.5
2019-03-06T23:46:21.829Z,7.6
2019-03-06T23:51:45.091Z,8.4
2019-03-06T23:57:07.888Z,6.2
